Terminal Aerodrome Forecast
Issued by NWS Pueblo, CO

Home | Current Version | Previous Version | Text Only | Print | Product List | Glossary On
Versions: 1 2 3 4 5 6 7 8 9 10 11 12 13 14 15 16 17 18 19 20 21 22 23 24 25 26 27 28 29 30 31 32 33 34 35 36 37 38 39 40 41 42 43
000
FTUS45 KPUB 281739
TAFPUB
TAF
KPUB 281739Z 2818/0118 VRB05KT P6SM SCT120
      TEMPO 2821/2823 SCT030 BKN120
     FM282300 09007KT 4SM -SN BR SCT018 OVC030
     FM010200 VRB06KT 6SM -SN BR BKN030
     FM011000 VRB04KT P6SM FEW010 SCT030 SCT120=

USA.gov is the U.S. government's official web portal to all federal, state and local government web resources and services.